createdAt,value
2022-09-07T00:00:17.318Z,15.83
2022-09-07T00:02:47.525Z,15.75
2022-09-07T00:05:17.995Z,16.90
2022-09-07T00:07:48.524Z,16.87
2022-09-07T00:10:18.848Z,18.10
2022-09-07T00:12:49.495Z,16.23
2022-09-07T00:15:20.197Z,16.85
2022-09-07T00:17:50.329Z,17.20
2022-09-07T00:20:20.732Z,16.27
2022-09-07T00:22:51.252Z,16.90
2022-09-07T00:25:21.314Z,17.45
2022-09-07T00:27:51.537Z,17.17
2022-09-07T00:30:21.750Z,17.82
2022-09-07T00:32:52.060Z,17.85
2022-09-07T00:35:22.214Z,17.73
2022-09-07T00:37:52.330Z,18.20
2022-09-07T00:40:23.155Z,18.55
2022-09-07T00:42:53.606Z,18.25
2022-09-07T00:45:24.128Z,18.87
2022-09-07T00:47:55.779Z,20.27
2022-09-07T00:50:27.619Z,19.92
2022-09-07T00:52:59.287Z,19.15
2022-09-07T00:55:29.950Z,19.73
2022-09-07T00:58:00.796Z,19.07
2022-09-07T01:00:31.305Z,20.25
2022-09-07T01:03:03.120Z,18.67
2022-09-07T01:05:35.417Z,18.82
2022-09-07T01:08:06.620Z,19.17
2022-09-07T01:10:37.177Z,20.20
2022-09-07T01:13:07.730Z,20.75
2022-09-07T01:15:37.519Z,21.10
2022-09-07T01:18:08.986Z,20.68
2022-09-07T01:20:39.513Z,21.87
2022-09-07T01:23:10.823Z,21.25
2022-09-07T01:25:42.148Z,21.02
2022-09-07T01:28:13.493Z,22.00
2022-09-07T01:30:45.460Z,21.35
2022-09-07T01:33:16.914Z,20.88
2022-09-07T01:35:48.639Z,21.65
2022-09-07T01:38:20.485Z,20.35
2022-09-07T01:40:51.901Z,20.60
2022-09-07T01:43:23.245Z,20.55
2022-09-07T01:45:55.076Z,20.32
2022-09-07T01:48:25.369Z,21.07
2022-09-07T01:50:57.039Z,21.33
2022-09-07T01:53:27.348Z,21.60
2022-09-07T01:55:58.909Z,20.45
2022-09-07T01:58:30.364Z,18.67
2022-09-07T02:01:03.007Z,19.95
2022-09-07T02:03:34.444Z,19.07
2022-09-07T02:06:06.151Z,19.12
2022-09-07T02:08:37.998Z,18.37
2022-09-07T02:11:09.395Z,18.35
2022-09-07T02:13:40.876Z,18.80
2022-09-07T02:16:10.878Z,18.40
2022-09-07T02:18:42.222Z,18.95
2022-09-07T02:21:13.617Z,20.17
2022-09-07T02:23:45.088Z,18.92
2022-09-07T02:26:16.603Z,19.05
2022-09-07T02:28:46.916Z,17.82
2022-09-07T02:31:17.531Z,17.87
2022-09-07T02:33:48.564Z,18.52
2022-09-07T02:36:20.375Z,17.82
2022-09-07T02:38:50.694Z,18.92
2022-09-07T02:41:22.255Z,17.65
2022-09-07T02:43:55.701Z,18.12
2022-09-07T02:46:27.174Z,17.98
2022-09-07T02:48:59.174Z,16.97
2022-09-07T02:51:30.549Z,17.30
2022-09-07T02:54:01.873Z,16.93
2022-09-07T02:56:33.152Z,18.95
2022-09-07T02:59:04.791Z,17.20
2022-09-07T03:01:36.338Z,17.55
2022-09-07T03:04:06.373Z,16.67
2022-09-07T03:06:37.647Z,15.80
2022-09-07T03:09:08.971Z,16.50
2022-09-07T03:11:39.497Z,16.48
2022-09-07T03:14:10.906Z,15.78
2022-09-07T03:16:41.282Z,15.93
2022-09-07T03:19:11.378Z,16.70
2022-09-07T03:21:41.610Z,15.45
2022-09-07T03:24:11.890Z,15.15
2022-09-07T03:26:43.148Z,15.53
2022-09-07T03:29:13.508Z,15.45
2022-09-07T03:31:43.610Z,16.48
2022-09-07T03:34:14.022Z,15.83
2022-09-07T03:36:44.145Z,15.53
2022-09-07T03:39:15.188Z,15.85
2022-09-07T03:41:45.560Z,15.10
2022-09-07T03:44:15.660Z,15.72
2022-09-07T03:46:45.790Z,16.70
2022-09-07T03:49:17.925Z,15.63
2022-09-07T03:51:48.147Z,15.80
2022-09-07T03:54:18.258Z,14.68
2022-09-07T03:56:48.481Z,15.63
2022-09-07T03:59:18.624Z,15.40
2022-09-07T04:01:48.789Z,14.53
2022-09-07T04:04:19.083Z,15.13
2022-09-07T04:06:49.680Z,15.70
2022-09-07T04:09:20.206Z,14.85
2022-09-07T04:11:50.656Z,15.75
2022-09-07T04:14:20.960Z,15.10
2022-09-07T04:16:52.038Z,14.15
2022-09-07T04:19:22.170Z,14.95
2022-09-07T04:21:52.799Z,15.83
2022-09-07T04:24:22.909Z,14.65
2022-09-07T04:26:53.666Z,14.95
2022-09-07T04:29:23.872Z,14.38
2022-09-07T04:31:53.888Z,14.65
2022-09-07T04:34:24.379Z,14.87
2022-09-07T04:36:54.600Z,14.73
2022-09-07T04:39:25.129Z,13.60
2022-09-07T04:41:56.077Z,15.20
2022-09-07T04:44:26.468Z,13.40
2022-09-07T04:46:56.513Z,13.72
2022-09-07T04:49:27.042Z,15.58
2022-09-07T04:52:16.423Z,15.68
2022-09-07T04:54:47.065Z,14.15
2022-09-07T04:57:17.585Z,14.28
2022-09-07T04:59:48.026Z,15.13
2022-09-07T05:02:18.496Z,14.28
2022-09-07T05:04:48.662Z,14.95
2022-09-07T05:07:18.798Z,15.28
2022-09-07T05:09:49.362Z,15.53
2022-09-07T05:12:19.844Z,14.78
2022-09-07T05:14:50.370Z,15.10
2022-09-07T05:17:21.117Z,15.20
2022-09-07T05:19:51.122Z,15.35
2022-09-07T05:22:21.566Z,14.30
2022-09-07T05:24:52.142Z,16.15
2022-09-07T05:27:22.260Z,14.73
2022-09-07T05:30:08.251Z,14.33
2022-09-07T05:32:24.190Z,15.45
2022-09-07T05:34:55.125Z,14.10
2022-09-07T05:37:25.666Z,14.53
2022-09-07T05:39:57.504Z,14.63
2022-09-07T05:42:28.070Z,15.03
2022-09-07T05:44:58.584Z,14.25
2022-09-07T05:47:29.073Z,14.50
2022-09-07T05:49:59.534Z,13.30
2022-09-07T05:52:29.863Z,14.30
2022-09-07T05:55:19.260Z,14.63
2022-09-07T05:57:32.099Z,15.03
2022-09-07T06:00:02.223Z,13.85
2022-09-07T06:02:34.506Z,14.23
2022-09-07T06:05:04.035Z,14.40
2022-09-07T06:07:34.651Z,13.98
2022-09-07T06:12:36.606Z,14.38
2022-09-07T06:15:07.028Z,14.43
2022-09-07T06:17:37.239Z,15.25
2022-09-07T06:20:08.530Z,13.58
2022-09-07T06:22:39.316Z,15.20
2022-09-07T06:25:09.917Z,14.30
2022-09-07T06:27:40.730Z,13.90
2022-09-07T06:30:11.581Z,15.05
2022-09-07T06:35:12.975Z,13.85
2022-09-07T06:37:43.820Z,14.75
2022-09-07T06:40:14.293Z,14.53
2022-09-07T06:42:44.952Z,14.33
2022-09-07T06:45:14.986Z,14.23
2022-09-07T06:47:45.501Z,13.05
2022-09-07T06:50:16.323Z,12.73
2022-09-07T06:55:18.717Z,13.45
2022-09-07T06:57:49.049Z,14.10
2022-09-07T07:00:19.275Z,13.68
2022-09-07T07:02:49.345Z,13.60
2022-09-07T07:05:19.400Z,13.32
2022-09-07T07:07:49.921Z,13.28
2022-09-07T07:10:24.481Z,13.90
2022-09-07T07:12:53.227Z,13.03
2022-09-07T07:15:23.761Z,13.60
2022-09-07T07:17:59.092Z,13.65
2022-09-07T07:20:26.156Z,13.40
2022-09-07T07:22:56.806Z,13.75
2022-09-07T07:25:27.338Z,14.15
2022-09-07T07:27:57.678Z,13.40
2022-09-07T07:30:28.127Z,13.72
2022-09-07T07:32:59.971Z,13.35
2022-09-07T07:35:30.104Z,13.62
2022-09-07T07:40:34.081Z,14.18
2022-09-07T07:43:03.689Z,14.15
2022-09-07T07:48:06.380Z,14.47
2022-09-07T07:50:37.329Z,13.95
2022-09-07T07:55:46.544Z,13.60
2022-09-07T07:58:10.897Z,13.93
2022-09-07T08:00:56.660Z,14.43
2022-09-07T08:03:12.346Z,14.20
2022-09-07T08:05:42.659Z,14.40
2022-09-07T08:08:13.023Z,13.70
2022-09-07T08:10:43.291Z,14.70
2022-09-07T08:13:13.286Z,14.15
2022-09-07T08:15:45.030Z,14.58
2022-09-07T08:18:15.935Z,14.65
2022-09-07T08:20:46.311Z,14.90
2022-09-07T08:23:16.530Z,14.35
2022-09-07T08:25:48.131Z,14.07
2022-09-07T08:28:18.409Z,14.45
2022-09-07T08:30:48.720Z,13.85
2022-09-07T08:33:19.282Z,14.70
2022-09-07T08:35:51.048Z,14.95
2022-09-07T08:38:21.232Z,14.47
2022-09-07T08:40:51.426Z,14.75
2022-09-07T08:43:22.704Z,14.58
2022-09-07T08:45:54.481Z,15.75
2022-09-07T08:48:25.730Z,16.10
2022-09-07T08:50:55.990Z,15.32
2022-09-07T08:53:27.037Z,16.42
2022-09-07T08:55:58.782Z,16.40
2022-09-07T08:58:48.677Z,16.37
2022-09-07T09:03:34.913Z,16.50
2022-09-07T09:06:07.133Z,16.73
2022-09-07T09:08:38.994Z,16.85
2022-09-07T09:11:10.653Z,16.70
2022-09-07T09:13:42.316Z,16.52
2022-09-07T09:16:13.901Z,16.80
2022-09-07T09:19:03.129Z,16.20
2022-09-07T09:21:33.426Z,16.52
2022-09-07T09:24:04.660Z,16.37
2022-09-07T09:26:36.142Z,15.63
2022-09-07T09:29:08.575Z,17.00
2022-09-07T09:31:38.989Z,16.97
2022-09-07T09:34:09.171Z,16.00
2022-09-07T09:36:40.438Z,16.35
2022-09-07T09:39:12.176Z,17.15
2022-09-07T09:41:42.927Z,16.37
2022-09-07T09:44:14.568Z,16.62
2022-09-07T09:46:47.218Z,16.52
2022-09-07T09:49:18.753Z,17.05
2022-09-07T09:54:24.277Z,17.02
2022-09-07T09:56:54.554Z,18.07
2022-09-07T10:04:32.281Z,17.90
2022-09-07T10:07:03.609Z,18.17
2022-09-07T10:09:37.994Z,18.17
2022-09-07T10:12:08.354Z,17.57
2022-09-07T10:14:40.158Z,17.57
2022-09-07T10:17:11.929Z,17.87
2022-09-07T10:19:43.744Z,18.77
2022-09-07T10:22:15.014Z,18.62
2022-09-07T10:24:45.203Z,18.70
2022-09-07T10:27:16.451Z,18.92
2022-09-07T10:29:46.561Z,18.67
2022-09-07T10:32:17.687Z,18.10
2022-09-07T10:34:49.120Z,17.90
2022-09-07T10:37:20.568Z,18.35
2022-09-07T10:39:51.837Z,17.98
2022-09-07T10:42:23.567Z,19.45
2022-09-07T10:44:55.295Z,20.15
2022-09-07T10:47:26.750Z,19.23
2022-09-07T10:52:30.888Z,19.75
2022-09-07T10:55:02.343Z,19.57
2022-09-07T10:57:34.030Z,21.02
2022-09-07T11:00:09.880Z,19.60
2022-09-07T11:05:14.610Z,21.05
2022-09-07T11:07:44.234Z,21.20
2022-09-07T11:10:15.588Z,20.82
2022-09-07T11:12:46.979Z,20.05
2022-09-07T11:15:18.582Z,20.43
2022-09-07T11:17:53.052Z,20.25
2022-09-07T11:20:22.610Z,20.85
2022-09-07T11:22:54.162Z,20.27
2022-09-07T11:25:32.639Z,20.60
2022-09-07T11:27:58.184Z,20.02
2022-09-07T11:30:29.564Z,20.70
2022-09-07T11:33:01.458Z,20.95
2022-09-07T11:35:33.082Z,19.55
2022-09-07T11:38:04.945Z,21.62
2022-09-07T11:40:36.416Z,20.27
2022-09-07T11:43:10.780Z,20.23
2022-09-07T11:45:39.126Z,20.68
2022-09-07T11:48:10.725Z,21.93
2022-09-07T11:50:42.984Z,20.70
2022-09-07T11:53:14.465Z,19.95
2022-09-07T11:55:46.219Z,21.70
2022-09-07T11:58:17.993Z,21.17
2022-09-07T12:00:49.572Z,19.90
2022-09-07T12:03:22.746Z,21.05
2022-09-07T12:05:52.786Z,20.72
2022-09-07T12:08:24.042Z,20.92
2022-09-07T12:10:55.836Z,21.95
2022-09-07T12:13:27.120Z,20.75
2022-09-07T12:15:56.988Z,21.48
2022-09-07T12:18:28.389Z,21.82
2022-09-07T12:20:58.726Z,22.13
2022-09-07T12:23:29.978Z,23.38
2022-09-07T12:26:01.384Z,23.05
2022-09-07T12:28:31.222Z,21.97
2022-09-07T12:31:02.478Z,23.87
2022-09-07T12:33:33.875Z,23.87
2022-09-07T12:36:04.547Z,23.75
2022-09-07T12:38:35.571Z,22.40
2022-09-07T12:41:06.605Z,22.90
2022-09-07T12:43:38.284Z,23.25
2022-09-07T12:46:09.564Z,23.15
2022-09-07T12:48:42.258Z,22.90
2022-09-07T12:51:13.688Z,23.10
2022-09-07T12:54:03.199Z,24.10
2022-09-07T12:56:34.664Z,24.23
2022-09-07T12:59:06.209Z,23.38
2022-09-07T13:01:37.849Z,23.85
2022-09-07T13:04:09.174Z,23.90
2022-09-07T13:09:13.142Z,24.55
2022-09-07T13:11:43.382Z,23.12
2022-09-07T13:14:15.732Z,23.55
2022-09-07T13:19:19.758Z,24.63
2022-09-07T13:21:51.062Z,23.77
2022-09-07T13:26:53.606Z,25.65
2022-09-07T13:29:24.848Z,24.80
2022-09-07T13:31:54.611Z,24.47
2022-09-07T13:34:26.013Z,24.60
2022-09-07T13:36:56.192Z,24.82
2022-09-07T13:39:26.710Z,24.77
2022-09-07T13:41:58.367Z,25.10
2022-09-07T13:44:30.094Z,24.60
2022-09-07T13:47:01.455Z,26.95
2022-09-07T13:49:32.794Z,25.05
2022-09-07T13:52:04.250Z,24.52
2022-09-07T13:54:34.034Z,25.52
2022-09-07T13:57:03.673Z,25.25
2022-09-07T13:59:35.531Z,27.62
2022-09-07T14:02:05.956Z,27.70
2022-09-07T14:04:37.359Z,26.25
2022-09-07T14:07:08.621Z,26.30
2022-09-07T14:09:38.931Z,25.52
2022-09-07T14:12:10.356Z,26.60
2022-09-07T14:14:40.468Z,27.00
2022-09-07T14:17:11.719Z,28.05
2022-09-07T14:19:41.457Z,28.77
2022-09-07T14:22:12.952Z,28.35
2022-09-07T14:24:44.409Z,30.08
2022-09-07T14:27:16.038Z,29.85
2022-09-07T14:29:46.265Z,29.18
2022-09-07T14:32:17.513Z,30.02
2022-09-07T14:34:48.053Z,31.55
2022-09-07T14:37:20.953Z,30.97
2022-09-07T14:39:52.353Z,30.48
2022-09-07T14:42:23.773Z,28.07
2022-09-07T14:44:56.505Z,27.60
2022-09-07T14:47:29.457Z,28.00
2022-09-07T14:50:02.308Z,28.23
2022-09-07T14:52:35.826Z,27.25
2022-09-07T14:55:06.462Z,28.92
2022-09-07T14:57:36.771Z,28.32
2022-09-07T15:00:08.207Z,27.73
2022-09-07T15:02:39.056Z,28.25
2022-09-07T15:05:10.456Z,28.00
2022-09-07T15:07:41.997Z,28.92
2022-09-07T15:10:13.358Z,28.62
2022-09-07T15:12:45.295Z,28.40
2022-09-07T15:15:16.524Z,27.35
2022-09-07T15:17:47.054Z,27.87
2022-09-07T15:20:18.389Z,27.40
2022-09-07T15:22:48.582Z,26.75
2022-09-07T15:25:18.596Z,26.77
2022-09-07T15:27:48.573Z,27.42
2022-09-07T15:30:18.774Z,26.73
2022-09-07T15:32:49.488Z,26.00
2022-09-07T15:35:19.528Z,26.93
2022-09-07T15:38:05.845Z,27.15
2022-09-07T15:40:22.528Z,26.80
2022-09-07T15:43:00.330Z,26.75
2022-09-07T15:45:24.198Z,24.85
2022-09-07T15:47:54.642Z,25.72
2022-09-07T15:50:24.871Z,25.02
2022-09-07T15:52:55.044Z,26.35
2022-09-07T15:55:26.912Z,26.15
2022-09-07T15:58:10.740Z,25.35
2022-09-07T16:00:28.558Z,26.15
2022-09-07T16:03:07.471Z,25.20
2022-09-07T16:05:31.350Z,25.62
2022-09-07T16:10:34.209Z,25.92
2022-09-07T16:13:11.108Z,26.20
2022-09-07T16:15:36.321Z,27.22
2022-09-07T16:18:06.586Z,26.75
2022-09-07T16:20:38.235Z,29.30
2022-09-07T16:23:16.133Z,28.23
2022-09-07T16:25:40.273Z,28.42
2022-09-07T16:28:10.426Z,29.27
2022-09-07T16:30:41.845Z,29.25
2022-09-07T16:33:12.138Z,29.63
2022-09-07T16:35:42.261Z,30.45
2022-09-07T16:40:44.406Z,29.72
2022-09-07T16:43:14.708Z,30.12
2022-09-07T16:48:16.206Z,30.20
2022-09-07T16:50:47.935Z,30.52
2022-09-07T16:53:17.942Z,30.43
2022-09-07T16:55:48.131Z,30.50
2022-09-07T17:00:51.214Z,29.95
2022-09-07T17:03:21.224Z,30.65
2022-09-07T17:05:51.755Z,31.30
2022-09-07T17:08:22.057Z,29.72
2022-09-07T17:10:52.067Z,28.75
2022-09-07T17:13:22.360Z,29.02
2022-09-07T17:15:52.764Z,31.95
2022-09-07T17:19:28.858Z,28.40
2022-09-07T17:20:55.383Z,28.95
2022-09-07T17:23:25.862Z,29.50
2022-09-07T17:25:58.505Z,28.52
2022-09-07T17:28:29.247Z,29.32
2022-09-07T17:31:01.761Z,28.12
2022-09-07T17:33:31.875Z,26.70
2022-09-07T17:36:03.144Z,28.12
2022-09-07T17:41:06.311Z,27.55
2022-09-07T17:43:44.801Z,27.10
2022-09-07T17:46:08.802Z,27.93
2022-09-07T17:48:39.363Z,29.52
2022-09-07T17:51:11.086Z,28.10
2022-09-07T17:54:12.944Z,28.60
2022-09-07T17:56:37.983Z,29.70
2022-09-07T18:01:40.450Z,30.43
2022-09-07T18:04:11.341Z,31.48
2022-09-07T18:06:42.416Z,30.32
2022-09-07T18:09:12.870Z,30.32
2022-09-07T18:11:48.741Z,28.47
2022-09-07T18:14:15.595Z,27.73
2022-09-07T18:16:46.489Z,28.27
2022-09-07T18:19:16.931Z,28.27
2022-09-07T18:21:49.174Z,27.80
2022-09-07T18:24:20.690Z,30.12
2022-09-07T18:26:51.725Z,29.87
2022-09-07T18:29:29.262Z,30.60
2022-09-07T18:31:55.605Z,31.37
2022-09-07T18:34:26.337Z,30.40
2022-09-07T18:36:56.319Z,29.55
2022-09-07T18:39:27.456Z,29.20
2022-09-07T18:41:57.702Z,28.75
2022-09-07T18:46:59.373Z,29.67
2022-09-07T18:49:29.648Z,29.92
2022-09-07T18:54:31.734Z,28.65
2022-09-07T18:57:01.855Z,29.37
2022-09-07T18:59:31.981Z,30.70
2022-09-07T19:02:05.045Z,29.55
2022-09-07T19:07:06.533Z,29.00
2022-09-07T19:09:36.556Z,27.55
2022-09-07T19:12:07.083Z,26.57
2022-09-07T19:14:37.269Z,25.60
2022-09-07T19:17:07.426Z,26.02
2022-09-07T19:19:37.539Z,25.70
2022-09-07T19:22:07.700Z,25.75
2022-09-07T19:24:39.332Z,26.05
2022-09-07T19:27:11.977Z,24.90
2022-09-07T19:29:41.249Z,25.85
2022-09-07T19:32:12.751Z,26.33
2022-09-07T19:34:44.818Z,26.07
2022-09-07T19:37:15.655Z,25.35
2022-09-07T19:39:46.200Z,24.07
2022-09-07T19:42:16.613Z,22.52
2022-09-07T19:44:46.834Z,22.27
2022-09-07T19:47:17.433Z,22.25
2022-09-07T19:49:48.828Z,22.37
2022-09-07T19:52:18.922Z,22.62
2022-09-07T19:54:51.756Z,25.40
2022-09-07T19:57:23.498Z,26.70
2022-09-07T19:59:54.825Z,26.23
2022-09-07T20:02:25.315Z,25.75
2022-09-07T20:04:56.309Z,26.17
2022-09-07T20:07:26.378Z,26.95
2022-09-07T20:09:59.339Z,25.32
2022-09-07T20:12:29.669Z,25.20
2022-09-07T20:14:59.803Z,23.90
2022-09-07T20:17:35.370Z,24.47
2022-09-07T20:20:07.862Z,24.23
2022-09-07T20:22:38.042Z,25.00
2022-09-07T20:25:12.589Z,25.37
2022-09-07T20:27:39.861Z,23.87
2022-09-07T20:30:10.285Z,22.87
2022-09-07T20:32:42.864Z,24.10
2022-09-07T20:35:14.739Z,22.22
2022-09-07T20:37:46.000Z,23.73
2022-09-07T20:40:19.567Z,23.83
2022-09-07T20:42:51.335Z,24.47
2022-09-07T20:45:21.909Z,24.25
2022-09-07T20:47:51.983Z,24.75
2022-09-07T20:50:22.427Z,26.17
2022-09-07T20:52:53.452Z,27.30
2022-09-07T20:55:26.208Z,26.45
2022-09-07T20:57:57.686Z,27.52
2022-09-07T21:00:33.661Z,25.92
2022-09-07T21:03:03.764Z,26.37
2022-09-07T21:05:35.930Z,26.45
2022-09-07T21:08:06.373Z,25.45
2022-09-07T21:10:39.944Z,26.40
2022-09-07T21:13:11.083Z,26.52
2022-09-07T21:15:41.883Z,25.82
2022-09-07T21:18:13.185Z,27.50
2022-09-07T21:21:02.625Z,25.85
2022-09-07T21:23:20.602Z,27.40
2022-09-07T21:25:53.453Z,27.82
2022-09-07T21:28:24.882Z,27.22
2022-09-07T21:30:58.859Z,28.47
2022-09-07T21:33:30.981Z,30.00
2022-09-07T21:36:02.458Z,28.42
2022-09-07T21:38:32.637Z,29.00
2022-09-07T21:41:07.006Z,29.85
2022-09-07T21:43:38.550Z,28.73
2022-09-07T21:46:09.749Z,30.27
2022-09-07T21:48:40.383Z,29.45
2022-09-07T21:51:11.472Z,29.82
2022-09-07T21:53:42.513Z,29.60
2022-09-07T21:56:13.895Z,30.15
2022-09-07T21:58:44.787Z,28.73
2022-09-07T22:01:19.873Z,27.55
2022-09-07T22:03:50.902Z,27.70
2022-09-07T22:06:20.879Z,28.65
2022-09-07T22:08:54.088Z,27.50
2022-09-07T22:11:25.027Z,26.85
2022-09-07T22:13:59.880Z,26.12
2022-09-07T22:16:30.468Z,26.37
2022-09-07T22:19:03.113Z,27.17
2022-09-07T22:21:33.388Z,28.85
2022-09-07T22:24:04.919Z,28.70
2022-09-07T22:26:37.424Z,28.70
2022-09-07T22:29:08.695Z,27.77
2022-09-07T22:31:39.465Z,26.75
2022-09-07T22:34:10.556Z,27.00
2022-09-07T22:36:41.905Z,25.82
2022-09-07T22:39:13.199Z,26.57
2022-09-07T22:41:44.037Z,25.35
2022-09-07T22:44:16.245Z,26.37
2022-09-07T22:46:47.766Z,26.73
2022-09-07T22:49:18.762Z,26.55
2022-09-07T22:51:49.370Z,25.32
2022-09-07T22:54:19.383Z,27.17
2022-09-07T22:56:49.460Z,32.50
2022-09-07T22:59:19.576Z,30.85
2022-09-07T23:01:50.730Z,29.48
2022-09-07T23:04:21.315Z,31.82
2022-09-07T23:06:52.553Z,30.02
2022-09-07T23:09:25.740Z,28.57
2022-09-07T23:11:55.742Z,27.25
2022-09-07T23:14:25.885Z,28.10
2022-09-07T23:16:57.322Z,27.65
2022-09-07T23:19:30.418Z,28.73
2022-09-07T23:22:01.970Z,29.52
2022-09-07T23:24:32.602Z,28.40
2022-09-07T23:27:02.725Z,27.98
2022-09-07T23:29:33.048Z,29.20
2022-09-07T23:32:10.674Z,27.95
2022-09-07T23:34:40.927Z,29.10
2022-09-07T23:37:11.218Z,29.70
2022-09-07T23:39:42.932Z,33.20
2022-09-07T23:42:13.784Z,36.90
2022-09-07T23:44:45.284Z,34.13
2022-09-07T23:47:15.351Z,34.85
2022-09-07T23:49:45.681Z,31.10
2022-09-07T23:52:15.726Z,29.00
2022-09-07T23:54:45.899Z,27.73
2022-09-07T23:57:16.071Z,27.40
2022-09-07T23:59:46.190Z,26.62
